Time;durP1;ratioP1;P1;durP2;ratioP2;P2;SDS_P1;SDS_P2;PMS_P1;PMS_P2;Temp;Humidity;BMP_temperature;BMP_pressure;BME280_temperature;BME280_humidity;BME280_pressure;Samples;Min_cycle;Max_cycle;Signal;HPM_P1;HPM_P2
2023/05/28 00:00:30;;;;;;;14.50;6.65;;;11.50;99.90;;;;;;5110821;28;20088;-61
2023/05/28 00:02:56;;;;;;;17.75;6.22;;;11.50;99.90;;;;;;5115398;28;20592;-61
2023/05/28 00:05:22;;;;;;;21.15;8.48;;;11.50;99.90;;;;;;5097256;28;20043;-61
2023/05/28 00:07:48;;;;;;;11.82;5.38;;;11.50;99.90;;;;;;5115443;28;20043;-61
2023/05/28 00:10:14;;;;;;;18.60;6.63;;;11.50;99.90;;;;;;5097883;28;20051;-61
2023/05/28 00:12:39;;;;;;;16.75;6.38;;;11.50;99.90;;;;;;5116015;28;20372;-61
2023/05/28 00:15:06;;;;;;;13.65;5.55;;;11.50;99.90;;;;;;5113891;28;20043;-61
2023/05/28 00:17:32;;;;;;;15.18;6.28;;;11.50;99.90;;;;;;5115783;28;20043;-61
2023/05/28 00:19:58;;;;;;;22.73;7.18;;;11.50;99.90;;;;;;5115234;28;20115;-61
2023/05/28 00:22:25;;;;;;;15.60;6.25;;;11.50;99.90;;;;;;5113911;28;20123;-61
2023/05/28 00:24:50;;;;;;;16.15;6.95;;;11.50;99.90;;;;;;5115880;28;20044;-61
2023/05/28 00:27:16;;;;;;;16.92;6.55;;;11.50;99.90;;;;;;5114545;28;20047;-61
2023/05/28 00:29:43;;;;;;;13.52;6.63;;;11.50;99.90;;;;;;5115254;28;20396;-61
2023/05/28 00:32:09;;;;;;;14.57;6.53;;;11.50;99.90;;;;;;5114850;28;20418;-61
2023/05/28 00:34:35;;;;;;;21.85;6.78;;;11.40;99.90;;;;;;5096998;28;20052;-61
2023/05/28 00:37:00;;;;;;;16.00;6.15;;;11.40;99.90;;;;;;5113908;28;20047;-61
2023/05/28 00:39:26;;;;;;;21.35;7.00;;;11.40;99.90;;;;;;5115322;28;20043;-61
2023/05/28 00:42:02;;;;;;;13.15;6.53;;;11.40;99.90;;;;;;5114820;28;20496;-61
2023/05/28 00:44:32;;;;;;;13.73;6.05;;;11.40;99.90;;;;;;5113411;28;20098;-61
2023/05/28 00:46:59;;;;;;;20.27;6.82;;;11.30;99.90;;;;;;5114514;28;20039;-61
2023/05/28 00:49:26;;;;;;;20.90;7.32;;;11.30;99.90;;;;;;5096161;28;20047;-61
2023/05/28 00:51:54;;;;;;;21.08;9.02;;;11.30;99.90;;;;;;5114413;28;20054;-61
2023/05/28 00:54:19;;;;;;;18.13;8.30;;;11.30;99.90;;;;;;5114825;28;20400;-61
2023/05/28 00:56:46;;;;;;;16.52;7.75;;;11.20;99.90;;;;;;5114784;28;20035;-61
2023/05/28 00:59:12;;;;;;;16.48;7.93;;;11.20;99.90;;;;;;5114948;28;20141;-61
2023/05/28 01:01:39;;;;;;;14.32;6.93;;;11.20;99.90;;;;;;5114219;28;20038;-61
2023/05/28 01:04:05;;;;;;;14.45;7.38;;;11.10;99.90;;;;;;5112996;28;20055;-61
2023/05/28 01:06:31;;;;;;;18.85;7.97;;;11.10;99.90;;;;;;5096656;28;20062;-61
2023/05/28 01:08:57;;;;;;;18.45;7.93;;;11.10;99.90;;;;;;5114181;28;20482;-61
2023/05/28 01:11:23;;;;;;;21.73;7.95;;;11.00;99.90;;;;;;5112047;28;20043;-61
2023/05/28 01:13:50;;;;;;;22.15;8.65;;;11.00;99.90;;;;;;5114778;28;20480;-61
2023/05/28 01:16:16;;;;;;;18.60;7.32;;;11.00;99.90;;;;;;5094479;28;20040;-61
2023/05/28 01:18:44;;;;;;;22.23;8.13;;;11.00;99.90;;;;;;5093584;28;20046;-61
2023/05/28 01:21:10;;;;;;;19.40;7.55;;;10.90;99.90;;;;;;5095542;28;20068;-61
2023/05/28 01:23:45;;;;;;;15.25;7.18;;;10.90;99.90;;;;;;5093098;28;20052;-61
2023/05/28 01:26:16;;;;;;;16.05;7.60;;;10.90;99.90;;;;;;5092186;28;20040;-61
2023/05/28 01:28:48;;;;;;;17.60;7.80;;;10.90;99.90;;;;;;5094378;28;20036;-61
2023/05/28 01:31:15;;;;;;;17.02;8.13;;;11.00;99.90;;;;;;5092146;28;20093;-61
2023/05/28 01:33:47;;;;;;;19.20;8.13;;;10.90;99.90;;;;;;5094079;28;20504;-61
2023/05/28 01:36:21;;;;;;;16.77;8.38;;;10.90;99.90;;;;;;5093651;28;20032;-61
2023/05/28 01:38:49;;;;;;;16.88;7.55;;;10.90;99.90;;;;;;5093560;28;20557;-61
2023/05/28 01:41:15;;;;;;;17.95;8.50;;;10.90;99.90;;;;;;5094066;28;20047;-61
2023/05/28 01:43:43;;;;;;;18.38;8.05;;;10.90;99.90;;;;;;5092529;28;20548;-61
2023/05/28 01:46:09;;;;;;;18.85;8.95;;;10.80;99.90;;;;;;5091735;28;20075;-61
2023/05/28 01:48:36;;;;;;;18.70;7.97;;;10.80;99.90;;;;;;5092934;28;20445;-61
2023/05/28 01:51:02;;;;;;;16.25;8.02;;;10.80;99.90;;;;;;5093188;28;20109;-61
2023/05/28 01:53:28;;;;;;;17.50;8.32;;;10.80;99.90;;;;;;5093018;28;20627;-61
2023/05/28 01:55:55;;;;;;;20.67;8.60;;;10.80;99.90;;;;;;5092486;28;20043;-61
2023/05/28 01:58:22;;;;;;;15.50;8.65;;;10.70;99.90;;;;;;5092066;28;20052;-61
2023/05/28 02:01:00;;;;;;;17.60;8.02;;;10.70;99.90;;;;;;5091779;28;20032;-61
2023/05/28 02:03:26;;;;;;;19.05;8.68;;;10.70;99.90;;;;;;5092277;28;20075;-61
2023/05/28 02:05:52;;;;;;;19.27;9.13;;;10.70;99.90;;;;;;5092453;28;20497;-61
2023/05/28 02:08:17;;;;;;;23.98;8.73;;;10.60;99.90;;;;;;5092836;28;20048;-61
2023/05/28 02:10:43;;;;;;;17.33;9.20;;;10.60;99.90;;;;;;5091915;28;20055;-61
2023/05/28 02:13:08;;;;;;;18.90;9.80;;;10.60;99.90;;;;;;5093527;28;20035;-61
2023/05/28 02:15:34;;;;;;;17.70;9.18;;;10.60;99.90;;;;;;5074399;28;20056;-61
2023/05/28 02:18:00;;;;;;;16.30;8.40;;;10.60;99.90;;;;;;5092306;28;20044;-61
2023/05/28 02:20:26;;;;;;;16.45;8.52;;;10.50;99.90;;;;;;5077638;28;20046;-61
2023/05/28 02:22:51;;;;;;;18.80;9.00;;;10.50;99.90;;;;;;5112362;28;20033;-61
2023/05/28 02:25:17;;;;;;;20.80;8.32;;;10.50;99.90;;;;;;5113235;28;20538;-61
2023/05/28 02:27:43;;;;;;;14.80;8.15;;;10.60;99.90;;;;;;5112784;28;20067;-62
2023/05/28 02:30:13;;;;;;;16.98;8.63;;;10.60;99.90;;;;;;5113139;28;20392;-61
2023/05/28 02:32:39;;;;;;;18.25;7.63;;;10.50;99.90;;;;;;5113408;28;20113;-61
2023/05/28 02:35:05;;;;;;;17.13;8.65;;;10.50;99.90;;;;;;5111288;28;20043;-61
2023/05/28 02:37:31;;;;;;;18.52;9.25;;;10.50;99.90;;;;;;5113062;28;20426;-61
2023/05/28 02:39:57;;;;;;;14.85;8.15;;;10.50;99.90;;;;;;5113399;28;20092;-61
2023/05/28 02:42:22;;;;;;;17.27;8.82;;;10.50;99.90;;;;;;5110553;28;20053;-61
2023/05/28 02:44:48;;;;;;;17.63;9.05;;;10.40;99.90;;;;;;5112794;28;20043;-61
2023/05/28 02:47:13;;;;;;;16.73;8.90;;;10.40;99.90;;;;;;5113042;28;20056;-61
2023/05/28 02:49:39;;;;;;;14.70;8.95;;;10.40;99.90;;;;;;5112174;28;20050;-61
2023/05/28 02:52:05;;;;;;;21.67;9.75;;;10.40;99.90;;;;;;5111845;28;20039;-61
2023/05/28 02:54:31;;;;;;;17.33;9.18;;;10.40;99.90;;;;;;5112728;28;20071;-61
2023/05/28 02:56:56;;;;;;;21.27;9.30;;;10.40;99.90;;;;;;5112428;28;20050;-61
2023/05/28 02:59:22;;;;;;;18.08;7.93;;;10.40;99.90;;;;;;5111383;28;20040;-62
2023/05/28 03:01:47;;;;;;;16.77;7.05;;;10.40;99.90;;;;;;5113104;28;20028;-61
2023/05/28 03:04:13;;;;;;;22.55;9.50;;;10.30;99.90;;;;;;5110858;28;20074;-61
2023/05/28 03:06:41;;;;;;;13.98;7.78;;;10.30;99.90;;;;;;5112839;28;20119;-62
2023/05/28 03:09:06;;;;;;;16.67;9.30;;;10.30;99.90;;;;;;5111330;28;20051;-61
2023/05/28 03:11:32;;;;;;;13.57;7.80;;;10.30;99.90;;;;;;5110311;28;20044;-61
2023/05/28 03:13:58;;;;;;;15.40;7.70;;;10.30;99.90;;;;;;5112916;28;20122;-62
2023/05/28 03:16:25;;;;;;;14.13;8.20;;;10.20;99.90;;;;;;5112215;28;20477;-61
2023/05/28 03:18:51;;;;;;;20.35;9.90;;;10.20;99.90;;;;;;5110924;28;20089;-61
2023/05/28 03:21:17;;;;;;;21.70;8.75;;;10.20;99.90;;;;;;5110928;28;20036;-61
2023/05/28 03:23:42;;;;;;;17.10;9.25;;;10.20;99.90;;;;;;5111701;28;20101;-61
2023/05/28 03:26:08;;;;;;;17.92;9.10;;;10.20;99.90;;;;;;5111577;28;20031;-62
2023/05/28 03:28:34;;;;;;;18.40;9.10;;;10.20;99.90;;;;;;5111501;28;20388;-62
2023/05/28 03:31:01;;;;;;;15.80;8.90;;;10.20;99.90;;;;;;5104423;28;20044;-62
2023/05/28 03:33:26;;;;;;;14.35;7.35;;;10.10;99.90;;;;;;5090450;28;20127;-61
2023/05/28 03:35:52;;;;;;;16.83;8.55;;;10.10;99.90;;;;;;5091075;28;20119;-61
2023/05/28 03:38:18;;;;;;;19.15;8.85;;;10.10;99.90;;;;;;5090012;28;20032;-61
2023/05/28 03:40:44;;;;;;;13.38;7.63;;;10.00;99.90;;;;;;5091277;28;20032;-61
2023/05/28 03:43:09;;;;;;;11.55;7.43;;;10.10;99.90;;;;;;5091660;28;20032;-61
2023/05/28 03:45:35;;;;;;;13.27;7.38;;;10.00;99.90;;;;;;5091442;28;20090;-61
2023/05/28 03:48:02;;;;;;;15.32;7.28;;;10.00;99.90;;;;;;5091227;28;20050;-61
2023/05/28 03:50:28;;;;;;;15.60;8.23;;;10.00;99.90;;;;;;5091168;28;20048;-61
2023/05/28 03:52:54;;;;;;;20.85;9.18;;;10.00;99.90;;;;;;5090108;28;20405;-61
2023/05/28 03:55:20;;;;;;;19.75;8.82;;;10.00;99.90;;;;;;5091579;28;20147;-61
2023/05/28 03:57:46;;;;;;;11.85;7.45;;;10.00;99.90;;;;;;5090857;28;20511;-61
2023/05/28 04:00:13;;;;;;;16.38;8.38;;;9.90;99.90;;;;;;5090959;28;20501;-61
2023/05/28 04:02:39;;;;;;;16.13;8.55;;;9.90;99.90;;;;;;5091798;28;20036;-61
2023/05/28 04:05:05;;;;;;;16.98;9.32;;;9.90;99.90;;;;;;5092026;28;20505;-61
2023/05/28 04:07:31;;;;;;;14.48;7.50;;;9.90;99.90;;;;;;5089261;28;20051;-61
2023/05/28 04:09:56;;;;;;;13.75;6.90;;;10.00;99.90;;;;;;5074004;28;20040;-61
2023/05/28 04:12:22;;;;;;;18.00;7.68;;;10.00;99.90;;;;;;5073294;28;20392;-61
2023/05/28 04:14:47;;;;;;;14.95;7.55;;;10.00;99.90;;;;;;5090312;28;20495;-61
2023/05/28 04:17:13;;;;;;;13.52;7.38;;;10.00;99.90;;;;;;5090684;28;20524;-61
2023/05/28 04:19:40;;;;;;;15.13;7.45;;;10.00;99.90;;;;;;5091735;28;20102;-61
2023/05/28 04:22:06;;;;;;;15.85;7.78;;;10.00;99.90;;;;;;5089511;28;20051;-62
2023/05/28 04:24:32;;;;;;;19.23;8.48;;;10.10;99.90;;;;;;5091421;28;20069;-61
2023/05/28 04:26:59;;;;;;;18.17;8.57;;;10.10;99.90;;;;;;5090998;28;20052;-61
2023/05/28 04:29:28;;;;;;;16.05;7.80;;;10.10;99.90;;;;;;5090398;28;20221;-61
2023/05/28 04:31:54;;;;;;;15.98;8.60;;;10.10;99.90;;;;;;5092006;28;20071;-61
2023/05/28 04:34:20;;;;;;;14.70;7.70;;;10.20;99.90;;;;;;5090354;28;20531;-62
2023/05/28 04:36:48;;;;;;;15.50;8.20;;;10.20;99.90;;;;;;5091629;28;20113;-62
2023/05/28 04:39:14;;;;;;;16.13;7.28;;;10.20;99.90;;;;;;5091498;28;20524;-61
2023/05/28 04:41:40;;;;;;;14.93;7.28;;;10.20;99.90;;;;;;5089350;28;20043;-61
2023/05/28 04:44:06;;;;;;;13.43;7.18;;;10.30;99.90;;;;;;5090327;28;20070;-62
2023/05/28 04:46:33;;;;;;;13.98;6.70;;;10.30;99.90;;;;;;5101888;28;20048;-62
2023/05/28 04:48:59;;;;;;;15.43;7.30;;;10.40;99.90;;;;;;5096676;28;20092;-61
2023/05/28 04:51:25;;;;;;;16.55;7.35;;;10.50;99.90;;;;;;5114391;28;20110;-61
2023/05/28 04:53:50;;;;;;;14.07;6.35;;;10.50;99.90;;;;;;5114779;28;20106;-61
2023/05/28 04:56:16;;;;;;;15.20;7.00;;;10.60;99.90;;;;;;5113144;28;20412;-61
2023/05/28 04:58:42;;;;;;;12.95;6.47;;;10.70;99.90;;;;;;5105086;28;20031;-61
2023/05/28 05:01:08;;;;;;;14.85;7.00;;;10.80;99.90;;;;;;5097828;28;20068;-61
2023/05/28 05:03:35;;;;;;;13.48;6.03;;;10.90;99.90;;;;;;5112086;28;20603;-62
2023/05/28 05:06:00;;;;;;;16.55;6.72;;;11.00;99.90;;;;;;5114398;28;20043;-62
2023/05/28 05:08:27;;;;;;;15.35;6.50;;;11.10;99.90;;;;;;5114831;28;20476;-61
2023/05/28 05:10:52;;;;;;;13.77;6.70;;;11.20;99.90;;;;;;5099336;28;20564;-62
2023/05/28 05:13:18;;;;;;;13.27;7.05;;;11.40;99.90;;;;;;5103460;28;20110;-62
2023/05/28 05:15:43;;;;;;;15.48;7.75;;;11.50;99.90;;;;;;5106054;28;20101;-62
2023/05/28 05:18:09;;;;;;;15.07;7.85;;;11.70;99.90;;;;;;5112575;28;20075;-61
2023/05/28 05:20:35;;;;;;;17.70;6.68;;;11.80;99.90;;;;;;5094365;28;20039;-61
2023/05/28 05:23:01;;;;;;;13.98;6.35;;;11.90;99.90;;;;;;5100496;28;20036;-62
2023/05/28 05:25:27;;;;;;;15.60;6.70;;;12.00;99.90;;;;;;5111001;28;20059;-62
2023/05/28 05:27:53;;;;;;;17.08;7.45;;;12.10;99.90;;;;;;5111320;28;20051;-63
2023/05/28 05:30:19;;;;;;;14.20;6.85;;;12.30;99.90;;;;;;5103279;28;20093;-64
2023/05/28 05:32:45;;;;;;;13.95;6.65;;;12.40;99.90;;;;;;5114116;28;20050;-64
2023/05/28 05:35:11;;;;;;;18.02;8.52;;;12.50;99.90;;;;;;5114780;28;20074;-63
2023/05/28 05:37:37;;;;;;;19.60;8.65;;;12.70;99.90;;;;;;5113797;28;20074;-63
2023/05/28 05:40:08;;;;;;;20.23;9.02;;;12.70;99.90;;;;;;5107537;28;20032;-65
2023/05/28 05:42:34;;;;;;;13.75;7.70;;;12.80;99.90;;;;;;5093090;28;20046;-60
2023/05/28 05:45:00;;;;;;;19.77;9.77;;;12.90;99.90;;;;;;5093508;28;20048;-63
2023/05/28 05:47:26;;;;;;;19.58;9.10;;;13.00;99.90;;;;;;5075926;28;20048;-64
2023/05/28 05:49:52;;;;;;;15.82;8.15;;;13.00;99.90;;;;;;5093010;28;20374;-61
2023/05/28 05:52:18;;;;;;;18.90;8.63;;;13.10;99.90;;;;;;5093339;28;20454;-62
2023/05/28 05:54:45;;;;;;;17.23;7.55;;;13.20;99.90;;;;;;5093389;28;20486;-61
2023/05/28 05:57:11;;;;;;;17.90;7.63;;;13.30;99.90;;;;;;5093956;28;20048;-61
2023/05/28 05:59:37;;;;;;;13.70;6.40;;;13.40;99.90;;;;;;5105039;28;20119;-62
2023/05/28 06:02:03;;;;;;;13.00;6.60;;;13.50;99.90;;;;;;5114409;28;20492;-62
2023/05/28 06:04:31;;;;;;;16.92;5.88;;;13.50;99.90;;;;;;5113474;28;20051;-61
2023/05/28 06:06:58;;;;;;;14.27;6.88;;;13.60;99.90;;;;;;5113474;28;20094;-61
2023/05/28 06:09:24;;;;;;;13.05;6.13;;;13.70;99.90;;;;;;5111968;28;20036;-61
2023/05/28 06:11:50;;;;;;;11.23;5.90;;;13.70;99.90;;;;;;5114009;28;20477;-61
2023/05/28 06:14:16;;;;;;;15.70;6.00;;;13.80;99.90;;;;;;5113235;28;20079;-61
2023/05/28 06:16:41;;;;;;;16.27;5.50;;;13.80;99.90;;;;;;5113587;28;20039;-60
2023/05/28 06:19:07;;;;;;;15.10;5.53;;;13.90;99.90;;;;;;5112083;28;20118;-60
2023/05/28 06:21:33;;;;;;;15.30;6.32;;;14.00;99.90;;;;;;5096459;28;20528;-60
2023/05/28 06:23:59;;;;;;;10.93;5.40;;;14.10;99.90;;;;;;5113897;28;20035;-60
2023/05/28 06:26:24;;;;;;;13.13;5.28;;;14.10;99.90;;;;;;5109831;28;20373;-60
2023/05/28 06:29:27;;;;;;;13.40;5.30;;;14.20;99.90;;;;;;5102596;28;20043;-61
2023/05/28 06:31:53;;;;;;;12.38;6.38;;;14.20;99.90;;;;;;5095336;28;20028;-61
2023/05/28 06:34:18;;;;;;;12.90;5.53;;;14.30;99.90;;;;;;5091252;28;20121;-62
2023/05/28 06:36:44;;;;;;;13.35;4.78;;;14.30;99.90;;;;;;5101684;28;20065;-62
2023/05/28 06:39:10;;;;;;;10.95;4.78;;;14.40;99.90;;;;;;5112150;28;20044;-61
2023/05/28 06:41:36;;;;;;;13.27;5.10;;;14.30;99.90;;;;;;5112493;28;20036;-61
2023/05/28 06:44:01;;;;;;;12.55;5.60;;;14.40;99.90;;;;;;5112571;28;20043;-61
2023/05/28 06:46:28;;;;;;;12.88;5.13;;;14.40;99.90;;;;;;5111337;28;20126;-61
2023/05/28 06:48:54;;;;;;;10.88;4.65;;;14.50;99.90;;;;;;5104027;28;20039;-60
2023/05/28 06:51:20;;;;;;;10.95;5.43;;;14.50;99.90;;;;;;5103943;28;20050;-61
2023/05/28 06:53:46;;;;;;;11.48;4.90;;;14.60;99.90;;;;;;5090594;28;20380;-61
2023/05/28 06:56:12;;;;;;;11.60;4.85;;;14.70;99.90;;;;;;5097932;28;20038;-61
2023/05/28 06:58:37;;;;;;;13.40;4.40;;;14.70;99.90;;;;;;5103285;28;20485;-61
2023/05/28 07:01:04;;;;;;;8.45;4.32;;;14.70;99.90;;;;;;5103725;28;20389;-60
2023/05/28 07:03:30;;;;;;;8.45;4.13;;;14.90;99.90;;;;;;5071926;28;20052;-60
2023/05/28 07:05:56;;;;;;;13.43;4.30;;;15.00;99.90;;;;;;5090618;28;20168;-60
2023/05/28 07:08:21;;;;;;;9.77;3.60;;;15.10;99.90;;;;;;5113293;27;20040;-61
2023/05/28 07:10:47;;;;;;;11.02;4.05;;;15.20;99.90;;;;;;5109702;27;20086;-60
2023/05/28 07:13:13;;;;;;;9.13;3.20;;;15.30;99.90;;;;;;5102385;28;20132;-61
2023/05/28 07:15:38;;;;;;;7.38;3.08;;;15.30;99.90;;;;;;5089084;28;20473;-61
2023/05/28 07:18:04;;;;;;;7.57;2.83;;;15.40;99.90;;;;;;5100186;27;20040;-61
2023/05/28 07:23:55;;;;;;;10.75;4.13;;;15.40;99.90;;;;;;5102422;28;20043;-60
2023/05/28 07:26:21;;;;;;;9.27;4.03;;;15.40;99.90;;;;;;5107938;28;20157;-60
2023/05/28 07:28:47;;;;;;;10.73;3.70;;;15.40;99.90;;;;;;5096182;28;20055;-61
2023/05/28 07:31:13;;;;;;;10.10;4.22;;;15.50;99.90;;;;;;5104565;28;20035;-60
2023/05/28 07:33:39;;;;;;;7.18;3.38;;;15.60;99.90;;;;;;5108738;28;20039;-60
2023/05/28 07:36:05;;;;;;;7.90;3.92;;;15.70;99.90;;;;;;5109115;28;20123;-61
2023/05/28 07:38:31;;;;;;;10.02;2.72;;;15.70;99.90;;;;;;5106570;28;20157;-61
2023/05/28 07:40:57;;;;;;;9.07;3.88;;;15.70;99.90;;;;;;5110388;28;20114;-61
2023/05/28 07:43:22;;;;;;;9.77;3.72;;;15.70;99.90;;;;;;5108217;28;20556;-60
2023/05/28 07:45:48;;;;;;;9.02;3.72;;;15.70;99.90;;;;;;5109485;28;20047;-61
2023/05/28 07:48:14;;;;;;;9.75;3.75;;;15.80;99.90;;;;;;5091056;28;20043;-60
2023/05/28 07:50:40;;;;;;;11.40;4.18;;;15.90;99.90;;;;;;5108475;28;20039;-60
2023/05/28 07:53:06;;;;;;;8.90;3.63;;;15.90;99.90;;;;;;5108179;28;20056;-60
2023/05/28 07:55:33;;;;;;;8.98;3.65;;;16.00;99.90;;;;;;5108679;28;20039;-61
2023/05/28 07:57:59;;;;;;;12.20;4.20;;;16.00;99.90;;;;;;5106660;28;20083;-61
2023/05/28 08:00:28;;;;;;;9.73;4.43;;;16.10;99.90;;;;;;5109707;28;20361;-61
2023/05/28 08:02:53;;;;;;;11.95;4.40;;;16.20;99.90;;;;;;5108948;28;20046;-60
2023/05/28 08:05:19;;;;;;;9.25;4.75;;;16.20;99.90;;;;;;5099567;28;20365;-60
2023/05/28 08:07:45;;;;;;;11.60;4.90;;;16.20;99.90;;;;;;5101635;28;20047;-60
2023/05/28 08:10:11;;;;;;;11.68;4.75;;;16.20;99.90;;;;;;5098110;28;20053;-60
2023/05/28 08:12:36;;;;;;;9.63;4.60;;;16.20;99.90;;;;;;5099597;28;20047;-60
2023/05/28 08:15:03;;;;;;;8.65;4.38;;;16.30;99.90;;;;;;5103664;28;20487;-60
2023/05/28 08:17:32;;;;;;;9.98;4.90;;;16.30;99.90;;;;;;5097369;28;20039;-60
2023/05/28 08:19:58;;;;;;;8.80;3.95;;;16.40;99.90;;;;;;5095459;28;20048;-60
2023/05/28 08:22:23;;;;;;;11.63;5.03;;;16.40;99.90;;;;;;5106215;28;20132;-60
2023/05/28 08:24:49;;;;;;;11.45;5.07;;;16.40;99.90;;;;;;5109591;28;20024;-59
2023/05/28 08:27:15;;;;;;;9.00;4.28;;;16.50;99.90;;;;;;5109387;28;20043;-60
2023/05/28 08:29:41;;;;;;;11.30;5.35;;;16.50;99.90;;;;;;5107864;28;20499;-60
2023/05/28 08:32:07;;;;;;;13.07;5.00;;;16.50;99.90;;;;;;5128718;27;20043;-60
2023/05/28 08:34:35;;;;;;;11.75;5.38;;;16.60;99.90;;;;;;5102903;28;20412;-61
2023/05/28 08:37:01;;;;;;;12.07;5.55;;;16.70;99.90;;;;;;5114910;28;20404;-58
2023/05/28 08:39:27;;;;;;;10.43;5.05;;;16.80;99.90;;;;;;5115517;28;20346;-58
2023/05/28 08:41:53;;;;;;;11.52;5.25;;;16.80;99.90;;;;;;5113767;28;20065;-59
2023/05/28 08:44:19;;;;;;;12.50;4.30;;;16.80;99.90;;;;;;5114221;28;20055;-58
2023/05/28 08:46:45;;;;;;;10.25;4.60;;;16.80;99.90;;;;;;5105732;28;20063;-60
2023/05/28 08:49:14;;;;;;;12.68;5.10;;;16.80;99.90;;;;;;5094482;28;20036;-59
2023/05/28 08:51:42;;;;;;;10.35;4.32;;;16.90;99.90;;;;;;5094029;28;20056;-58
2023/05/28 08:54:08;;;;;;;9.50;5.18;;;16.80;99.90;;;;;;5094076;28;20048;-57
2023/05/28 08:56:35;;;;;;;9.73;5.57;;;16.80;99.90;;;;;;5076786;28;20128;-59
2023/05/28 08:59:01;;;;;;;10.35;5.68;;;16.80;99.80;;;;;;5095221;28;20115;-58
2023/05/28 09:01:27;;;;;;;9.02;5.03;;;16.80;98.60;;;;;;5106084;28;20038;-58
2023/05/28 09:03:53;;;;;;;10.65;5.13;;;17.00;98.70;;;;;;5108172;28;20035;-58
2023/05/28 09:06:20;;;;;;;11.32;5.65;;;17.00;97.50;;;;;;5106186;28;20040;-59
2023/05/28 09:08:46;;;;;;;10.65;5.78;;;17.00;97.10;;;;;;5099204;28;20065;-62
2023/05/28 09:11:13;;;;;;;13.73;5.45;;;17.10;97.80;;;;;;5074481;28;20061;-62
2023/05/28 09:13:43;;;;;;;9.95;5.72;;;17.20;97.80;;;;;;5106476;28;20039;-61
2023/05/28 09:16:09;;;;;;;12.60;5.43;;;17.30;97.40;;;;;;5099992;28;20074;-61
2023/05/28 09:18:36;;;;;;;8.95;4.63;;;17.40;97.70;;;;;;5095234;28;20083;-61
2023/05/28 09:21:08;;;;;;;11.02;5.93;;;17.50;97.80;;;;;;5091528;28;20036;-62
2023/05/28 09:23:34;;;;;;;13.18;5.75;;;17.70;97.50;;;;;;5086081;28;20048;-59
2023/05/28 09:26:00;;;;;;;10.82;5.65;;;17.80;97.30;;;;;;5103610;28;20096;-60
2023/05/28 09:28:30;;;;;;;9.98;6.00;;;17.90;97.10;;;;;;5109703;28;20052;-59
2023/05/28 09:31:05;;;;;;;10.18;4.70;;;17.90;97.60;;;;;;5110803;28;20039;-59
2023/05/28 09:33:32;;;;;;;9.93;4.88;;;18.10;97.80;;;;;;5099776;28;20123;-61
2023/05/28 09:36:02;;;;;;;11.50;5.60;;;18.20;99.90;;;;;;5098106;28;20040;-62
2023/05/28 09:38:41;;;;;;;11.20;5.70;;;18.10;98.60;;;;;;5109698;28;20047;-61
2023/05/28 09:41:24;;;;;;;10.98;4.93;;;18.00;94.90;;;;;;5110466;28;20059;-62
2023/05/28 09:44:05;;;;;;;9.98;5.20;;;18.00;95.60;;;;;;5103028;28;20116;-62
2023/05/28 09:46:36;;;;;;;10.00;4.57;;;17.90;94.50;;;;;;5099847;28;20431;-62
2023/05/28 09:49:03;;;;;;;9.32;4.88;;;17.90;94.70;;;;;;5111241;28;20114;-62
2023/05/28 09:51:32;;;;;;;12.50;4.72;;;18.00;94.60;;;;;;5092791;28;20381;-62
2023/05/28 09:54:01;;;;;;;10.82;4.72;;;18.00;94.40;;;;;;5099146;28;20036;-62
2023/05/28 09:56:29;;;;;;;12.82;4.25;;;18.00;94.20;;;;;;5089644;28;20032;-62
2023/05/28 09:59:00;;;;;;;8.60;4.60;;;18.00;94.30;;;;;;5106436;28;20043;-62
2023/05/28 10:01:31;;;;;;;8.52;3.78;;;18.10;93.80;;;;;;5109562;28;20040;-62
2023/05/28 10:04:07;;;;;;;9.45;3.90;;;18.20;93.80;;;;;;5111841;28;20047;-61
2023/05/28 10:06:35;;;;;;;6.90;3.85;;;18.10;92.00;;;;;;5110089;28;20118;-61
2023/05/28 10:09:02;;;;;;;8.43;3.38;;;18.20;92.10;;;;;;5111675;28;20078;-62
2023/05/28 10:11:34;;;;;;;6.55;3.33;;;18.30;92.30;;;;;;5110164;28;20070;-61
2023/05/28 10:14:00;;;;;;;7.22;3.40;;;18.30;92.40;;;;;;5103515;28;20047;-61
2023/05/28 10:16:26;;;;;;;9.02;3.67;;;18.30;91.50;;;;;;5100084;28;20048;-61
2023/05/28 10:18:53;;;;;;;6.78;3.28;;;18.30;91.20;;;;;;5090122;28;20040;-61
2023/05/28 10:21:19;;;;;;;8.48;3.05;;;18.40;91.90;;;;;;5089725;28;20055;-61
2023/05/28 10:23:46;;;;;;;6.35;3.13;;;18.40;91.80;;;;;;5089277;28;20082;-61
2023/05/28 10:26:14;;;;;;;8.80;3.50;;;18.30;90.90;;;;;;5089678;28;20044;-61
2023/05/28 10:28:39;;;;;;;8.73;3.47;;;18.30;90.50;;;;;;5084339;28;20047;-61
2023/05/28 10:31:07;;;;;;;8.02;3.15;;;18.30;90.90;;;;;;5095786;28;20036;-62
2023/05/28 10:33:43;;;;;;;8.85;3.67;;;18.30;91.20;;;;;;5098887;28;20040;-62
2023/05/28 10:36:13;;;;;;;8.73;3.53;;;18.30;90.50;;;;;;5104013;28;20484;-61
2023/05/28 10:38:46;;;;;;;7.13;3.30;;;18.40;91.90;;;;;;5102709;28;20048;-62
2023/05/28 10:41:21;;;;;;;7.93;3.10;;;18.40;91.90;;;;;;5100936;28;20488;-61
2023/05/28 10:43:53;;;;;;;9.63;3.30;;;18.40;92.10;;;;;;5109120;28;20051;-62
2023/05/28 10:46:26;;;;;;;10.25;3.70;;;18.50;91.80;;;;;;5110608;28;20131;-61
2023/05/28 10:49:16;;;;;;;8.73;3.20;;;18.40;92.20;;;;;;5110056;28;20118;-62
2023/05/28 10:52:00;;;;;;;7.68;3.58;;;18.50;92.50;;;;;;5100857;28;20062;-62
2023/05/28 10:54:45;;;;;;;6.97;3.63;;;18.50;92.60;;;;;;5089467;28;20036;-61
2023/05/28 10:57:20;;;;;;;7.78;3.40;;;18.50;93.50;;;;;;5091551;28;20048;-62
2023/05/28 10:59:57;;;;;;;7.78;4.13;;;18.60;94.60;;;;;;5094123;28;20062;-62
2023/05/28 11:02:25;;;;;;;8.13;4.15;;;18.60;94.50;;;;;;5104145;28;20040;-62
2023/05/28 11:04:53;;;;;;;11.75;4.15;;;18.60;95.00;;;;;;5089714;28;20040;-62
2023/05/28 11:07:19;;;;;;;10.75;4.55;;;18.60;96.00;;;;;;5099932;28;20047;-62
2023/05/28 11:09:52;;;;;;;10.75;4.43;;;18.60;95.90;;;;;;5089144;28;20055;-61
2023/05/28 11:12:20;;;;;;;8.50;3.83;;;18.50;95.70;;;;;;5088598;28;20052;-62
2023/05/28 11:14:45;;;;;;;10.23;4.65;;;18.50;95.70;;;;;;5097599;28;20050;-62
2023/05/28 11:17:12;;;;;;;9.98;3.65;;;18.50;95.80;;;;;;5087185;28;20122;-62
2023/05/28 11:19:43;;;;;;;12.60;4.38;;;18.60;96.10;;;;;;5089691;28;20040;-61
2023/05/28 11:22:10;;;;;;;8.63;4.40;;;18.50;95.60;;;;;;5100300;28;20735;-61
2023/05/28 11:24:53;;;;;;;11.05;3.97;;;18.50;96.20;;;;;;5090488;28;20044;-61
2023/05/28 11:27:22;;;;;;;12.13;4.68;;;18.40;96.10;;;;;;5089351;28;20388;-62
2023/05/28 11:29:49;;;;;;;9.73;4.55;;;18.50;96.90;;;;;;5105043;28;20096;-62
2023/05/28 11:32:18;;;;;;;11.07;4.38;;;18.50;97.20;;;;;;5099208;28;20040;-62
2023/05/28 11:34:43;;;;;;;10.82;4.35;;;18.50;97.10;;;;;;5103239;28;20040;-61
2023/05/28 11:37:09;;;;;;;8.25;3.78;;;18.50;97.70;;;;;;5100156;28;20037;-63
2023/05/28 11:39:35;;;;;;;10.40;4.88;;;18.50;97.80;;;;;;5124943;27;20044;-65
2023/05/28 11:42:00;;;;;;;10.30;4.50;;;18.50;97.50;;;;;;5092179;28;20036;-63
2023/05/28 11:44:26;;;;;;;10.13;4.50;;;18.60;97.50;;;;;;5104570;28;20210;-65
2023/05/28 11:46:54;;;;;;;12.20;3.70;;;18.70;97.00;;;;;;5104069;28;20051;-60
2023/05/28 11:49:20;;;;;;;7.50;4.28;;;18.70;96.00;;;;;;5093733;28;20039;-65
2023/05/28 11:51:46;;;;;;;7.18;3.45;;;18.70;95.50;;;;;;5092010;28;20047;-62
2023/05/28 11:54:13;;;;;;;9.13;4.07;;;18.70;94.90;;;;;;5091957;28;20036;-62
2023/05/28 11:56:39;;;;;;;7.60;3.03;;;18.70;94.80;;;;;;5093150;28;20043;-62
2023/05/28 11:59:04;;;;;;;12.77;4.30;;;18.90;95.30;;;;;;5094163;28;20044;-62
2023/05/28 12:01:34;;;;;;;10.60;4.03;;;19.00;95.40;;;;;;5095876;28;20119;-62
2023/05/28 12:04:06;;;;;;;10.75;4.32;;;19.00;95.20;;;;;;5096107;28;20039;-62
2023/05/28 12:06:33;;;;;;;8.90;3.53;;;18.90;95.30;;;;;;5095611;28;20032;-62
2023/05/28 12:09:05;;;;;;;8.85;3.00;;;18.90;95.40;;;;;;5094917;28;20039;-62
2023/05/28 12:11:30;;;;;;;7.65;3.55;;;18.90;96.00;;;;;;5076888;28;20480;-62
2023/05/28 12:13:59;;;;;;;12.68;4.00;;;18.90;95.80;;;;;;5096040;28;20062;-62
2023/05/28 12:16:25;;;;;;;9.70;3.90;;;18.90;96.00;;;;;;5094297;28;20058;-62
2023/05/28 12:18:51;;;;;;;9.20;3.47;;;18.90;96.60;;;;;;5093996;28;20036;-62
2023/05/28 12:21:20;;;;;;;9.63;3.85;;;18.80;96.40;;;;;;5095735;28;20085;-62
2023/05/28 12:23:46;;;;;;;8.98;3.70;;;18.80;96.60;;;;;;5096153;28;20503;-62
2023/05/28 12:26:13;;;;;;;8.65;3.90;;;18.80;97.00;;;;;;5094617;28;20036;-62
2023/05/28 12:28:40;;;;;;;9.02;3.90;;;18.70;96.30;;;;;;5095668;28;20072;-62
2023/05/28 12:31:07;;;;;;;9.93;4.35;;;18.80;96.60;;;;;;5094505;28;20119;-62
2023/05/28 12:33:33;;;;;;;10.60;4.40;;;18.80;96.60;;;;;;5094480;28;20115;-62
2023/05/28 12:35:59;;;;;;;9.98;4.45;;;18.80;96.50;;;;;;5095496;28;20457;-62
2023/05/28 12:38:26;;;;;;;9.25;4.35;;;18.80;96.50;;;;;;5093606;28;20055;-62
2023/05/28 12:40:52;;;;;;;8.23;3.67;;;18.80;95.90;;;;;;5093501;28;20047;-62
2023/05/28 12:43:18;;;;;;;10.80;3.88;;;18.80;95.40;;;;;;5094026;28;20060;-62